Time;durP1;ratioP1;P1;durP2;ratioP2;P2;SDS_P1;SDS_P2;PMS_P1;PMS_P2;Temp;Humidity;BMP_temperature;BMP_pressure;BME280_temperature;BME280_humidity;BME280_pressure;Samples;Min_cycle;Max_cycle;Signal;HPM_P1;HPM_P2
2023/09/03 00:00:24;;;;;;;0.20;0.20;;;;;;;;;;4977399;28;20133;-87
2023/09/03 00:02:53;;;;;;;0.20;0.08;;;;;;;;;;4969946;28;20527;-84
2023/09/03 00:05:19;;;;;;;0.20;0.05;;;;;;;;;;4982803;28;20045;-84
2023/09/03 00:07:45;;;;;;;0.20;0.10;;;;;;;;;;4960631;28;20038;-85
2023/09/03 00:10:11;;;;;;;0.20;0.10;;;;;;;;;;4976286;28;20119;-85
2023/09/03 00:12:37;;;;;;;0.20;0.00;;;;;;;;;;4971488;28;20042;-84
2023/09/03 00:15:04;;;;;;;0.20;0.00;;;;;;;;;;4973402;28;20598;-85
2023/09/03 00:17:30;;;;;;;0.20;0.10;;;;;;;;;;4979749;28;20089;-85
2023/09/03 00:19:56;;;;;;;0.20;0.00;;;;;;;;;;4974817;28;20042;-88
2023/09/03 00:22:30;;;;;;;0.20;0.05;;;;;;;;;;4981264;28;20057;-86
2023/09/03 00:24:56;;;;;;;0.68;0.30;;;;;;;;;;4959988;28;20411;-84
2023/09/03 00:27:22;;;;;;;0.20;0.10;;;;;;;;;;4974346;28;20108;-85
2023/09/03 00:29:48;;;;;;;0.20;0.00;;;;;;;;;;4972181;28;20120;-85
2023/09/03 00:32:14;;;;;;;0.20;0.10;;;;;;;;;;4961797;28;20046;-85
2023/09/03 00:34:40;;;;;;;0.20;0.03;;;;;;;;;;4968474;28;20503;-85
2023/09/03 00:37:06;;;;;;;0.20;0.10;;;;;;;;;;4961171;28;20376;-87
2023/09/03 00:39:33;;;;;;;0.20;0.00;;;;;;;;;;4974338;28;20070;-84
2023/09/03 00:41:59;;;;;;;0.20;0.10;;;;;;;;;;4956352;28;20038;-86
2023/09/03 00:44:25;;;;;;;0.20;0.00;;;;;;;;;;4963348;28;20039;-85
2023/09/03 00:46:51;;;;;;;0.25;0.10;;;;;;;;;;4971342;28;21123;-85
2023/09/03 00:49:20;;;;;;;0.20;0.10;;;;;;;;;;4974476;28;21297;-86
2023/09/03 00:51:46;;;;;;;0.20;0.10;;;;;;;;;;4955580;28;20077;-87
2023/09/03 00:54:13;;;;;;;0.20;0.10;;;;;;;;;;4972000;28;20050;-86
2023/09/03 00:56:40;;;;;;;0.20;0.00;;;;;;;;;;4971361;28;20038;-84
2023/09/03 00:59:06;;;;;;;0.20;0.10;;;;;;;;;;4964678;28;20092;-87
2023/09/03 01:01:32;;;;;;;0.20;0.10;;;;;;;;;;4961504;28;20059;-85
2023/09/03 01:03:58;;;;;;;0.20;0.10;;;;;;;;;;4971750;28;20038;-84
2023/09/03 01:06:25;;;;;;;0.20;0.03;;;;;;;;;;4973499;28;20039;-85
2023/09/03 01:09:00;;;;;;;0.20;0.00;;;;;;;;;;4968734;28;20048;-88
2023/09/03 01:11:41;;;;;;;0.30;0.20;;;;;;;;;;4981281;28;20074;-85
2023/09/03 01:14:26;;;;;;;0.20;0.10;;;;;;;;;;4973104;28;20125;-87
2023/09/03 01:16:58;;;;;;;0.20;0.08;;;;;;;;;;4976134;28;20035;-87
2023/09/03 01:19:28;;;;;;;0.20;0.10;;;;;;;;;;4984014;28;20465;-87
2023/09/03 01:21:58;;;;;;;0.20;0.10;;;;;;;;;;4978031;28;20561;-86
2023/09/03 01:24:36;;;;;;;0.20;0.10;;;;;;;;;;4965462;28;20065;-85
2023/09/03 01:27:16;;;;;;;0.20;0.10;;;;;;;;;;4965575;28;20050;-85
2023/09/03 01:29:43;;;;;;;0.40;0.17;;;;;;;;;;4983433;28;20034;-86
2023/09/03 01:32:12;;;;;;;0.20;0.00;;;;;;;;;;4968202;28;20039;-85
2023/09/03 01:34:40;;;;;;;0.20;0.10;;;;;;;;;;4977513;28;20101;-85
2023/09/03 01:37:09;;;;;;;0.20;0.20;;;;;;;;;;4982858;28;20088;-86
2023/09/03 01:39:38;;;;;;;0.20;0.10;;;;;;;;;;4947585;28;20042;-84
2023/09/03 01:42:04;;;;;;;1.95;0.20;;;;;;;;;;4961334;28;20041;-85
2023/09/03 01:44:30;;;;;;;0.20;0.10;;;;;;;;;;4971478;28;20046;-85
2023/09/03 01:47:01;;;;;;;0.20;0.03;;;;;;;;;;4983355;28;20042;-85
2023/09/03 01:49:50;;;;;;;0.20;0.10;;;;;;;;;;4987779;28;20595;-86
2023/09/03 01:52:23;;;;;;;0.20;0.20;;;;;;;;;;4965832;28;20511;-85
2023/09/03 01:55:05;;;;;;;;;;;;;;;;;;;;;
2023/09/03 01:57:44;;;;;;;0.20;0.15;;;;;;;;;;4987656;28;20077;-87
2023/09/03 02:00:16;;;;;;;0.20;0.10;;;;;;;;;;4981873;28;20104;-86
2023/09/03 02:02:52;;;;;;;0.20;0.10;;;;;;;;;;4979145;28;20117;-87
2023/09/03 02:05:25;;;;;;;0.20;0.10;;;;;;;;;;4984899;28;20049;-86
2023/09/03 02:07:56;;;;;;;0.30;0.30;;;;;;;;;;4979105;28;20035;-85
2023/09/03 02:10:28;;;;;;;0.20;0.17;;;;;;;;;;4968431;28;20034;-89
2023/09/03 02:12:57;;;;;;;0.45;0.40;;;;;;;;;;4983323;28;20065;-85
2023/09/03 02:15:31;;;;;;;0.20;0.10;;;;;;;;;;4972362;28;20046;-84
2023/09/03 02:18:00;;;;;;;0.20;0.10;;;;;;;;;;4987008;28;20133;-86
2023/09/03 02:20:40;;;;;;;0.20;0.08;;;;;;;;;;4989140;28;20042;-87
2023/09/03 02:23:14;;;;;;;0.20;0.00;;;;;;;;;;4980034;28;20045;-89
2023/09/03 02:25:51;;;;;;;0.20;0.00;;;;;;;;;;4974445;28;20518;-85
2023/09/03 02:28:20;;;;;;;0.20;0.00;;;;;;;;;;4980349;28;20045;-88
2023/09/03 02:30:49;;;;;;;0.28;0.10;;;;;;;;;;4878995;23;3471205;-80
2023/09/03 02:33:15;;;;;;;0.20;0.10;;;;;;;;;;4974947;28;20046;-80
2023/09/03 02:35:41;;;;;;;0.20;0.10;;;;;;;;;;5016884;28;20418;-80
2023/09/03 02:38:07;;;;;;;0.25;0.05;;;;;;;;;;4990172;28;20051;-80
2023/09/03 02:40:33;;;;;;;0.20;0.10;;;;;;;;;;4987162;28;20038;-80
2023/09/03 02:42:59;;;;;;;0.20;0.10;;;;;;;;;;4980936;28;20395;-80
2023/09/03 02:45:25;;;;;;;0.20;0.10;;;;;;;;;;4958175;28;20041;-81
2023/09/03 02:47:51;;;;;;;0.73;0.22;;;;;;;;;;4960160;28;20037;-80
2023/09/03 02:50:17;;;;;;;1.27;0.20;;;;;;;;;;4974116;28;20046;-80
2023/09/03 02:52:43;;;;;;;0.50;0.30;;;;;;;;;;4966557;28;20687;-80
2023/09/03 02:55:10;;;;;;;0.20;0.10;;;;;;;;;;4965114;28;20041;-80
2023/09/03 02:57:36;;;;;;;0.20;0.00;;;;;;;;;;4971519;28;20046;-81
2023/09/03 03:00:04;;;;;;;0.20;0.10;;;;;;;;;;4982832;28;20033;-80
2023/09/03 03:02:30;;;;;;;1.02;0.98;;;;;;;;;;4969079;28;20659;-80
2023/09/03 03:04:56;;;;;;;0.20;0.00;;;;;;;;;;4974922;28;20042;-80
2023/09/03 03:07:22;;;;;;;0.20;0.10;;;;;;;;;;4976097;28;20038;-80
2023/09/03 03:09:51;;;;;;;0.40;0.30;;;;;;;;;;4963277;28;20136;-80
2023/09/03 03:12:18;;;;;;;0.20;0.10;;;;;;;;;;4972667;28;20527;-79
2023/09/03 03:14:45;;;;;;;0.68;0.22;;;;;;;;;;4962178;28;20038;-80
2023/09/03 03:17:11;;;;;;;0.20;0.00;;;;;;;;;;4972883;28;20098;-81
2023/09/03 03:19:37;;;;;;;0.20;0.10;;;;;;;;;;4977521;28;20042;-81
2023/09/03 03:22:03;;;;;;;0.20;0.10;;;;;;;;;;4975684;28;20039;-80
2023/09/03 03:24:29;;;;;;;0.20;0.00;;;;;;;;;;4976557;28;20575;-80
2023/09/03 03:26:55;;;;;;;0.20;0.05;;;;;;;;;;4963596;28;20521;-81
2023/09/03 03:29:21;;;;;;;0.20;0.10;;;;;;;;;;4973730;28;20499;-80
2023/09/03 03:31:47;;;;;;;0.20;0.20;;;;;;;;;;4956988;28;20042;-81
2023/09/03 03:34:13;;;;;;;0.20;0.00;;;;;;;;;;4964377;28;20335;-81
2023/09/03 03:36:39;;;;;;;0.20;0.00;;;;;;;;;;4972757;28;20105;-81
2023/09/03 03:39:06;;;;;;;0.20;0.10;;;;;;;;;;4965393;28;20546;-80
2023/09/03 03:41:32;;;;;;;0.20;0.10;;;;;;;;;;4978313;28;20127;-80
2023/09/03 03:43:59;;;;;;;0.20;0.10;;;;;;;;;;4964076;28;20053;-81
2023/09/03 03:46:25;;;;;;;0.20;0.20;;;;;;;;;;4971215;28;20853;-80
2023/09/03 03:48:51;;;;;;;0.20;0.08;;;;;;;;;;4968945;28;20045;-81
2023/09/03 03:51:17;;;;;;;0.20;0.03;;;;;;;;;;4961287;28;20706;-81
2023/09/03 03:53:43;;;;;;;0.20;0.10;;;;;;;;;;4973126;28;20490;-80
2023/09/03 03:56:10;;;;;;;0.30;0.20;;;;;;;;;;4966917;28;20081;-80
2023/09/03 03:58:37;;;;;;;0.20;0.15;;;;;;;;;;4965366;28;20043;-80
2023/09/03 04:01:15;;;;;;;0.20;0.10;;;;;;;;;;4979972;28;20030;-81
2023/09/03 04:03:41;;;;;;;0.20;0.10;;;;;;;;;;4961793;28;20042;-81
2023/09/03 04:06:07;;;;;;;0.20;0.10;;;;;;;;;;4970972;28;20491;-80
2023/09/03 04:08:34;;;;;;;0.20;0.10;;;;;;;;;;4961746;28;20129;-80
2023/09/03 04:11:02;;;;;;;0.30;0.30;;;;;;;;;;4969775;28;20042;-80
2023/09/03 04:13:28;;;;;;;0.20;0.00;;;;;;;;;;4980478;28;20162;-80
2023/09/03 04:15:55;;;;;;;0.20;0.10;;;;;;;;;;4973816;28;20217;-80
2023/09/03 04:18:21;;;;;;;0.20;0.08;;;;;;;;;;4960845;28;20085;-80
2023/09/03 04:20:50;;;;;;;0.20;0.10;;;;;;;;;;4956885;28;20118;-80
2023/09/03 04:23:16;;;;;;;0.20;0.10;;;;;;;;;;4951449;28;20129;-81
2023/09/03 04:25:42;;;;;;;0.30;0.20;;;;;;;;;;4975866;28;20038;-80
2023/09/03 04:28:08;;;;;;;0.20;0.00;;;;;;;;;;4985453;28;20042;-81
2023/09/03 04:30:35;;;;;;;0.20;0.00;;;;;;;;;;4962275;28;20060;-80
2023/09/03 04:33:02;;;;;;;0.20;0.10;;;;;;;;;;4982367;28;20034;-81
2023/09/03 04:35:28;;;;;;;0.20;0.10;;;;;;;;;;4974017;28;20053;-81
2023/09/03 04:37:54;;;;;;;0.20;0.20;;;;;;;;;;4978861;28;20062;-80
2023/09/03 04:40:20;;;;;;;0.20;0.10;;;;;;;;;;4964672;28;20397;-80
2023/09/03 04:42:46;;;;;;;0.20;0.13;;;;;;;;;;4978285;28;20046;-81
2023/09/03 04:45:12;;;;;;;0.28;0.28;;;;;;;;;;4962984;28;20034;-81
2023/09/03 04:47:38;;;;;;;0.20;0.00;;;;;;;;;;4968550;28;20042;-80
2023/09/03 04:50:05;;;;;;;0.32;0.28;;;;;;;;;;4961584;28;20525;-80
2023/09/03 04:52:31;;;;;;;0.20;0.10;;;;;;;;;;4962551;28;20038;-80
2023/09/03 04:54:57;;;;;;;0.20;0.10;;;;;;;;;;4964393;28;20503;-80
2023/09/03 04:57:23;;;;;;;0.20;0.10;;;;;;;;;;4971357;28;20041;-81
2023/09/03 04:59:49;;;;;;;0.20;0.15;;;;;;;;;;4966912;28;20073;-81
2023/09/03 05:02:15;;;;;;;0.20;0.10;;;;;;;;;;4947814;28;20144;-80
2023/09/03 05:04:41;;;;;;;0.20;0.10;;;;;;;;;;4967003;28;20586;-80
2023/09/03 05:07:07;;;;;;;1.40;0.20;;;;;;;;;;4961142;28;20057;-80
2023/09/03 05:09:33;;;;;;;0.25;0.22;;;;;;;;;;4945401;28;20596;-81
2023/09/03 05:11:59;;;;;;;0.20;0.10;;;;;;;;;;4969197;28;20092;-81
2023/09/03 05:14:25;;;;;;;0.20;0.00;;;;;;;;;;4962418;28;20051;-80
2023/09/03 05:16:51;;;;;;;0.20;0.10;;;;;;;;;;4973906;28;20045;-80
2023/09/03 05:19:17;;;;;;;0.20;0.20;;;;;;;;;;4963708;28;20073;-80
2023/09/03 05:21:43;;;;;;;0.20;0.10;;;;;;;;;;4968578;28;20058;-79
2023/09/03 05:24:10;;;;;;;0.20;0.10;;;;;;;;;;4958203;28;20066;-80
2023/09/03 05:26:36;;;;;;;0.20;0.10;;;;;;;;;;4970994;28;20034;-80
2023/09/03 05:29:02;;;;;;;0.20;0.10;;;;;;;;;;4946646;28;20054;-80
2023/09/03 05:31:30;;;;;;;0.50;0.25;;;;;;;;;;4956077;28;20356;-79
2023/09/03 05:33:57;;;;;;;0.20;0.10;;;;;;;;;;4968897;28;20117;-80
2023/09/03 05:36:23;;;;;;;0.20;0.08;;;;;;;;;;4949828;28;20686;-80
2023/09/03 05:38:49;;;;;;;0.20;0.08;;;;;;;;;;4962622;28;20051;-80
2023/09/03 05:41:15;;;;;;;0.20;0.10;;;;;;;;;;4946281;28;20041;-80
2023/09/03 05:43:41;;;;;;;0.20;0.08;;;;;;;;;;4959804;28;20046;-80
2023/09/03 05:46:08;;;;;;;0.20;0.10;;;;;;;;;;4951444;28;20086;-80
2023/09/03 05:48:34;;;;;;;0.20;0.05;;;;;;;;;;4961549;28;20407;-80
2023/09/03 05:51:03;;;;;;;0.30;0.20;;;;;;;;;;4966440;28;20049;-80
2023/09/03 05:53:33;;;;;;;0.20;0.10;;;;;;;;;;4973137;28;20539;-80
2023/09/03 05:56:09;;;;;;;0.30;0.20;;;;;;;;;;4966298;28;20042;-80
2023/09/03 05:58:36;;;;;;;0.20;0.10;;;;;;;;;;4962043;28;20043;-80
2023/09/03 06:01:05;;;;;;;0.20;0.00;;;;;;;;;;4963413;28;20443;-80
2023/09/03 06:03:32;;;;;;;0.20;0.00;;;;;;;;;;4961478;28;20078;-80
2023/09/03 06:06:05;;;;;;;0.20;0.10;;;;;;;;;;4971389;28;20043;-80
2023/09/03 06:08:31;;;;;;;0.20;0.17;;;;;;;;;;4978817;28;20099;-80
2023/09/03 06:10:58;;;;;;;0.20;0.10;;;;;;;;;;4985623;28;20057;-80
2023/09/03 06:13:24;;;;;;;0.20;0.00;;;;;;;;;;4958628;28;20066;-81
2023/09/03 06:15:51;;;;;;;0.20;0.10;;;;;;;;;;4980756;28;20056;-81
2023/09/03 06:18:17;;;;;;;0.20;0.00;;;;;;;;;;4978856;28;20035;-81
2023/09/03 06:20:43;;;;;;;0.20;0.00;;;;;;;;;;4967243;28;20194;-80
2023/09/03 06:23:09;;;;;;;0.20;0.00;;;;;;;;;;4958132;28;20057;-80
2023/09/03 06:25:38;;;;;;;0.20;0.00;;;;;;;;;;4969231;28;20284;-80
2023/09/03 06:28:04;;;;;;;0.20;0.00;;;;;;;;;;4972208;28;20045;-80
2023/09/03 06:30:30;;;;;;;0.20;0.10;;;;;;;;;;4965229;28;20643;-81
2023/09/03 06:32:57;;;;;;;0.40;0.10;;;;;;;;;;4974428;28;20122;-81
2023/09/03 06:35:23;;;;;;;0.20;0.10;;;;;;;;;;4949567;28;20050;-81
2023/09/03 06:37:49;;;;;;;0.57;0.30;;;;;;;;;;4971900;28;20046;-81
2023/09/03 06:40:16;;;;;;;0.20;0.00;;;;;;;;;;4970580;28;20131;-80
2023/09/03 06:42:42;;;;;;;0.20;0.05;;;;;;;;;;4970379;28;20038;-79
2023/09/03 06:45:09;;;;;;;0.20;0.10;;;;;;;;;;4959329;28;20053;-80
2023/09/03 06:47:35;;;;;;;0.20;0.08;;;;;;;;;;4967797;28;20046;-80
2023/09/03 06:50:01;;;;;;;0.20;0.10;;;;;;;;;;4972732;28;20038;-80
2023/09/03 06:52:27;;;;;;;0.20;0.00;;;;;;;;;;4968154;28;20133;-80
2023/09/03 06:54:53;;;;;;;0.20;0.10;;;;;;;;;;4965337;28;20542;-80
2023/09/03 06:57:20;;;;;;;0.20;0.10;;;;;;;;;;4963121;28;20105;-80
2023/09/03 06:59:46;;;;;;;0.35;0.15;;;;;;;;;;4958996;28;20045;-79
2023/09/03 07:02:12;;;;;;;0.20;0.00;;;;;;;;;;4957152;28;20042;-80
2023/09/03 07:04:38;;;;;;;0.20;0.05;;;;;;;;;;4962560;28;20053;-80
2023/09/03 07:07:04;;;;;;;0.20;0.10;;;;;;;;;;4972843;28;20042;-80
2023/09/03 07:09:32;;;;;;;0.20;0.00;;;;;;;;;;4976014;28;20045;-80
2023/09/03 07:11:59;;;;;;;0.20;0.00;;;;;;;;;;4961231;28;20037;-79
2023/09/03 07:14:25;;;;;;;0.20;0.10;;;;;;;;;;4972326;28;20057;-79
2023/09/03 07:16:51;;;;;;;0.20;0.10;;;;;;;;;;4970163;28;20069;-80
2023/09/03 07:19:18;;;;;;;1.30;0.20;;;;;;;;;;4959869;28;20038;-80
2023/09/03 07:21:44;;;;;;;0.20;0.00;;;;;;;;;;4966724;28;20045;-81
2023/09/03 07:24:11;;;;;;;0.20;0.10;;;;;;;;;;4951899;28;20050;-80
2023/09/03 07:26:37;;;;;;;0.20;0.10;;;;;;;;;;4968530;28;20098;-80
2023/09/03 07:29:03;;;;;;;1.13;0.20;;;;;;;;;;4963753;28;20038;-80
2023/09/03 07:31:29;;;;;;;0.20;0.10;;;;;;;;;;4968104;28;20109;-80
2023/09/03 07:33:58;;;;;;;0.20;0.10;;;;;;;;;;4963418;28;20078;-81
2023/09/03 07:36:24;;;;;;;0.20;0.10;;;;;;;;;;4960203;28;20092;-81
2023/09/03 07:38:50;;;;;;;0.20;0.00;;;;;;;;;;4972177;28;20034;-80
2023/09/03 07:41:16;;;;;;;0.20;0.03;;;;;;;;;;4970188;28;20038;-81
2023/09/03 07:43:42;;;;;;;0.20;0.10;;;;;;;;;;4970982;28;20043;-80
2023/09/03 07:46:08;;;;;;;0.20;0.10;;;;;;;;;;4966899;28;20046;-81
2023/09/03 07:48:34;;;;;;;0.47;0.20;;;;;;;;;;4973813;28;20041;-80
2023/09/03 07:51:00;;;;;;;0.20;0.00;;;;;;;;;;4962001;28;20046;-80
2023/09/03 07:53:26;;;;;;;0.20;0.10;;;;;;;;;;4969182;28;20120;-81
2023/09/03 07:55:52;;;;;;;0.20;0.00;;;;;;;;;;4965463;28;20787;-81
2023/09/03 07:58:18;;;;;;;0.20;0.10;;;;;;;;;;4946348;28;20827;-81
2023/09/03 08:00:45;;;;;;;0.20;0.10;;;;;;;;;;4958698;28;20577;-80
2023/09/03 08:03:11;;;;;;;0.30;0.20;;;;;;;;;;4969120;28;20575;-81
2023/09/03 08:05:37;;;;;;;0.20;0.10;;;;;;;;;;4969498;28;20047;-81
2023/09/03 08:08:03;;;;;;;0.20;0.00;;;;;;;;;;4971820;28;20043;-81
2023/09/03 08:10:29;;;;;;;0.35;0.13;;;;;;;;;;4960243;28;20415;-80
2023/09/03 08:12:55;;;;;;;0.20;0.10;;;;;;;;;;4971103;28;20045;-81
2023/09/03 08:15:21;;;;;;;0.20;0.00;;;;;;;;;;4970078;28;20132;-81
2023/09/03 08:17:47;;;;;;;0.20;0.00;;;;;;;;;;4950314;28;20106;-81
2023/09/03 08:20:13;;;;;;;0.20;0.10;;;;;;;;;;4961406;28;20069;-80
2023/09/03 08:22:40;;;;;;;0.28;0.10;;;;;;;;;;4960649;28;20529;-82
2023/09/03 08:25:06;;;;;;;0.20;0.00;;;;;;;;;;4963784;28;20042;-81
2023/09/03 08:27:32;;;;;;;0.20;0.10;;;;;;;;;;4968896;28;20162;-82
2023/09/03 08:32:35;;;;;;;0.20;0.05;;;;;;;;;;4999018;28;20137;-85
2023/09/03 08:35:01;;;;;;;0.20;0.10;;;;;;;;;;4977214;28;20092;-86
2023/09/03 08:37:28;;;;;;;0.20;0.10;;;;;;;;;;4965583;28;20041;-86
2023/09/03 08:39:54;;;;;;;0.20;0.10;;;;;;;;;;4958675;28;20041;-86
2023/09/03 08:42:21;;;;;;;0.20;0.10;;;;;;;;;;4962248;28;20038;-86
2023/09/03 08:45:03;;;;;;;0.20;0.00;;;;;;;;;;4949693;28;20046;-84
2023/09/03 08:47:31;;;;;;;0.20;0.10;;;;;;;;;;4957128;28;20045;-85
2023/09/03 08:49:59;;;;;;;0.20;0.10;;;;;;;;;;4937199;28;20047;-85
2023/09/03 08:52:26;;;;;;;0.20;0.10;;;;;;;;;;4954917;28;20838;-84
2023/09/03 08:54:53;;;;;;;0.20;0.00;;;;;;;;;;4963598;28;20053;-85
2023/09/03 08:57:19;;;;;;;0.20;0.10;;;;;;;;;;4967631;28;20043;-84
2023/09/03 08:59:45;;;;;;;0.20;0.05;;;;;;;;;;4944396;28;20055;-85
2023/09/03 09:02:13;;;;;;;0.20;0.10;;;;;;;;;;4961560;28;20057;-85
2023/09/03 09:04:39;;;;;;;0.20;0.20;;;;;;;;;;4964785;28;20418;-85
2023/09/03 09:07:07;;;;;;;0.20;0.00;;;;;;;;;;4958906;28;20045;-84
2023/09/03 09:09:33;;;;;;;0.20;0.10;;;;;;;;;;4955913;28;20128;-85
2023/09/03 09:12:02;;;;;;;0.20;0.10;;;;;;;;;;4945772;28;20229;-84
2023/09/03 09:14:35;;;;;;;0.20;0.10;;;;;;;;;;4953980;28;20050;-84
2023/09/03 09:17:01;;;;;;;0.20;0.10;;;;;;;;;;4963413;28;20045;-84
2023/09/03 09:19:27;;;;;;;0.20;0.00;;;;;;;;;;4954429;28;20038;-86
2023/09/03 09:21:54;;;;;;;0.22;0.10;;;;;;;;;;4961688;28;20034;-85
2023/09/03 09:24:20;;;;;;;0.20;0.20;;;;;;;;;;4966118;28;20137;-85
2023/09/03 09:26:46;;;;;;;0.20;0.00;;;;;;;;;;4968050;28;20045;-85
2023/09/03 09:29:12;;;;;;;0.20;0.00;;;;;;;;;;4961332;28;20049;-86
2023/09/03 09:31:38;;;;;;;0.38;0.30;;;;;;;;;;4952167;28;20050;-83
2023/09/03 09:34:12;;;;;;;0.20;0.10;;;;;;;;;;4945206;28;20053;-84
2023/09/03 09:36:39;;;;;;;0.20;0.10;;;;;;;;;;4974528;28;20647;-83
2023/09/03 09:39:06;;;;;;;0.20;0.00;;;;;;;;;;4955129;28;20065;-82
2023/09/03 09:41:37;;;;;;;0.20;0.10;;;;;;;;;;4967652;28;20039;-85
2023/09/03 09:44:08;;;;;;;0.20;0.00;;;;;;;;;;4962013;28;20909;-85
2023/09/03 09:46:34;;;;;;;0.20;0.00;;;;;;;;;;4948335;28;20041;-83
2023/09/03 09:49:01;;;;;;;0.20;0.10;;;;;;;;;;4945251;28;20136;-86
2023/09/03 09:51:27;;;;;;;0.20;0.00;;;;;;;;;;4968000;28;20046;-84
2023/09/03 09:53:57;;;;;;;0.20;0.10;;;;;;;;;;4953003;28;20046;-85
2023/09/03 09:56:31;;;;;;;0.20;0.00;;;;;;;;;;4968316;28;20039;-86
2023/09/03 09:58:57;;;;;;;0.20;0.10;;;;;;;;;;4970332;28;20041;-83
2023/09/03 10:01:25;;;;;;;0.20;0.10;;;;;;;;;;4952773;28;20055;-84
2023/09/03 10:03:51;;;;;;;0.30;0.17;;;;;;;;;;4970159;28;20034;-85
2023/09/03 10:06:21;;;;;;;0.20;0.10;;;;;;;;;;4976259;28;20052;-87
2023/09/03 10:08:52;;;;;;;0.20;0.00;;;;;;;;;;4937196;28;20736;-83
2023/09/03 10:11:18;;;;;;;0.20;0.10;;;;;;;;;;4963620;28;20121;-84
2023/09/03 10:13:44;;;;;;;0.20;0.00;;;;;;;;;;4961256;28;20453;-84
2023/09/03 10:16:11;;;;;;;0.28;0.15;;;;;;;;;;4968068;28;20042;-84
2023/09/03 10:18:42;;;;;;;0.20;0.10;;;;;;;;;;4983006;28;21364;-85
2023/09/03 10:21:13;;;;;;;0.20;0.00;;;;;;;;;;4964397;28;20125;-84
2023/09/03 10:23:49;;;;;;;0.20;0.10;;;;;;;;;;4978673;28;20050;-84
2023/09/03 10:26:21;;;;;;;0.20;0.08;;;;;;;;;;4984960;28;20039;-84
2023/09/03 10:28:48;;;;;;;0.20;0.13;;;;;;;;;;4979739;28;20035;-85
2023/09/03 10:31:16;;;;;;;0.20;0.10;;;;;;;;;;4947262;28;20533;-84
2023/09/03 10:33:42;;;;;;;0.20;0.10;;;;;;;;;;4954785;28;21234;-84
2023/09/03 10:36:19;;;;;;;0.20;0.10;;;;;;;;;;4951018;28;20042;-86
2023/09/03 10:38:49;;;;;;;0.55;0.55;;;;;;;;;;4953417;28;20046;-85
2023/09/03 10:41:35;;;;;;;0.20;0.10;;;;;;;;;;4952624;28;20049;-86
2023/09/03 10:44:15;;;;;;;0.30;0.20;;;;;;;;;;4969485;28;20058;-89
2023/09/03 10:47:00;;;;;;;0.20;0.10;;;;;;;;;;4964522;28;20042;-87
2023/09/03 10:49:46;;;;;;;0.20;0.10;;;;;;;;;;4966439;28;20084;-85
2023/09/03 10:52:31;;;;;;;0.20;0.00;;;;;;;;;;4951997;28;20030;-83
2023/09/03 10:55:22;;;;;;;0.20;0.10;;;;;;;;;;4966973;28;20078;-85
2023/09/03 10:57:49;;;;;;;0.20;0.10;;;;;;;;;;4958330;28;20046;-85
2023/09/03 11:00:16;;;;;;;0.20;0.10;;;;;;;;;;4964245;28;20311;-84
2023/09/03 11:02:43;;;;;;;0.20;0.10;;;;;;;;;;4964334;28;20073;-85
2023/09/03 11:05:20;;;;;;;0.20;0.00;;;;;;;;;;4952654;28;20068;-85
2023/09/03 11:07:46;;;;;;;0.20;0.10;;;;;;;;;;4960562;28;20038;-85
2023/09/03 11:10:39;;;;;;;0.20;0.10;;;;;;;;;;4950366;28;20030;-85
2023/09/03 11:13:08;;;;;;;0.20;0.10;;;;;;;;;;4947489;28;20084;-84
2023/09/03 11:15:34;;;;;;;0.20;0.00;;;;;;;;;;4960433;28;20157;-87
2023/09/03 11:18:00;;;;;;;0.20;0.10;;;;;;;;;;4963002;28;20092;-84
2023/09/03 11:20:31;;;;;;;0.20;0.10;;;;;;;;;;4961549;28;20054;-84
2023/09/03 11:22:58;;;;;;;0.40;0.20;;;;;;;;;;4956156;28;20228;-85
2023/09/03 11:25:40;;;;;;;0.20;0.10;;;;;;;;;;4960463;28;20081;-86
2023/09/03 11:28:12;;;;;;;;;;;;;;;;;;4951923;28;20034;-86
2023/09/03 11:30:42;;;;;;;0.57;0.30;;;;;;;;;;4947372;28;19965;-87
2023/09/03 11:33:27;;;;;;;0.20;0.00;;;;;;;;;;4967134;28;20053;-86
2023/09/03 11:35:54;;;;;;;0.20;0.00;;;;;;;;;;4952288;28;20034;-84
2023/09/03 11:38:21;;;;;;;0.30;0.20;;;;;;;;;;4969706;28;20468;-84
2023/09/03 11:40:48;;;;;;;0.20;0.00;;;;;;;;;;4962132;28;20042;-87
2023/09/03 11:43:14;;;;;;;0.20;0.20;;;;;;;;;;4967886;28;20050;-84
2023/09/03 11:45:40;;;;;;;0.20;0.10;;;;;;;;;;4968562;28;20034;-84
2023/09/03 11:48:06;;;;;;;0.20;0.10;;;;;;;;;;4947009;28;20035;-83
2023/09/03 11:50:35;;;;;;;0.20;0.00;;;;;;;;;;4977989;28;20043;-83
2023/09/03 11:53:04;;;;;;;0.30;0.22;;;;;;;;;;4970771;28;20061;-85
2023/09/03 11:55:35;;;;;;;0.20;0.10;;;;;;;;;;4954493;28;20503;-85
2023/09/03 11:58:02;;;;;;;0.20;0.10;;;;;;;;;;4957096;28;20038;-84
2023/09/03 12:00:29;;;;;;;0.20;0.00;;;;;;;;;;4953075;28;20085;-86
2023/09/03 12:02:55;;;;;;;0.20;0.10;;;;;;;;;;4947135;28;20145;-83
2023/09/03 12:05:22;;;;;;;0.20;0.10;;;;;;;;;;4961682;28;20053;-83
2023/09/03 12:07:48;;;;;;;0.20;0.10;;;;;;;;;;4948501;28;20125;-85
2023/09/03 12:10:20;;;;;;;0.20;0.20;;;;;;;;;;4945894;28;20046;-85
2023/09/03 12:12:46;;;;;;;0.20;0.10;;;;;;;;;;4974644;28;20053;-83
2023/09/03 12:15:17;;;;;;;0.20;0.10;;;;;;;;;;4960690;28;20038;-82
2023/09/03 12:17:43;;;;;;;0.20;0.20;;;;;;;;;;4965735;28;20450;-83
2023/09/03 12:20:09;;;;;;;0.20;0.10;;;;;;;;;;4949832;28;20097;-84
2023/09/03 12:22:35;;;;;;;0.20;0.10;;;;;;;;;;4957083;28;20041;-84
2023/09/03 12:25:05;;;;;;;0.20;0.00;;;;;;;;;;4963727;28;20053;-83
2023/09/03 12:27:47;;;;;;;0.20;0.10;;;;;;;;;;4949973;28;20085;-84
2023/09/03 12:30:13;;;;;;;0.20;0.10;;;;;;;;;;4960537;28;20975;-84
2023/09/03 12:32:39;;;;;;;0.20;0.10;;;;;;;;;;4956506;28;21078;-84
2023/09/03 12:35:18;;;;;;;0.65;0.30;;;;;;;;;;4962047;28;20077;-83
2023/09/03 12:37:45;;;;;;;0.20;0.10;;;;;;;;;;4966852;28;20044;-85
2023/09/03 12:40:14;;;;;;;0.20;0.10;;;;;;;;;;4948369;28;20042;-86
2023/09/03 12:42:40;;;;;;;0.75;0.10;;;;;;;;;;4965022;28;20038;-83
2023/09/03 12:45:06;;;;;;;0.20;0.10;;;;;;;;;;4952271;28;20065;-84
2023/09/03 12:47:33;;;;;;;0.20;0.08;;;;;;;;;;4955561;28;20051;-85
2023/09/03 12:49:59;;;;;;;0.20;0.10;;;;;;;;;;4943786;28;20264;-85
2023/09/03 12:52:25;;;;;;;0.20;0.08;;;;;;;;;;4947360;28;20035;-85
2023/09/03 12:54:51;;;;;;;0.20;0.10;;;;;;;;;;4956174;28;20465;-83
2023/09/03 12:57:17;;;;;;;0.30;0.10;;;;;;;;;;4950421;28;20655;-85
2023/09/03 12:59:43;;;;;;;0.20;0.10;;;;;;;;;;4948600;28;20038;-85
2023/09/03 13:02:09;;;;;;;0.30;0.25;;;;;;;;;;4945373;28;20145;-85
2023/09/03 13:04:35;;;;;;;0.20;0.05;;;;;;;;;;4958127;28;20054;-83
2023/09/03 13:07:01;;;;;;;0.20;0.10;;;;;;;;;;4961666;28;20049;-84
2023/09/03 13:09:27;;;;;;;0.20;0.10;;;;;;;;;;4982138;28;20046;-84
2023/09/03 13:11:53;;;;;;;0.20;0.00;;;;;;;;;;4946312;28;20046;-84
2023/09/03 13:14:19;;;;;;;0.20;0.10;;;;;;;;;;4955143;28;20423;-84
2023/09/03 13:16:45;;;;;;;0.20;0.10;;;;;;;;;;4964774;28;20096;-85
2023/09/03 13:19:11;;;;;;;0.43;0.17;;;;;;;;;;4959714;28;20722;-84
2023/09/03 13:21:38;;;;;;;0.20;0.08;;;;;;;;;;4965155;28;20038;-86
2023/09/03 13:24:05;;;;;;;0.20;0.10;;;;;;;;;;4951706;28;20043;-84
2023/09/03 13:26:31;;;;;;;0.20;0.08;;;;;;;;;;4947037;28;20059;-85
2023/09/03 13:29:00;;;;;;;0.20;0.10;;;;;;;;;;4949287;28;20488;-86
2023/09/03 13:31:26;;;;;;;0.20;0.10;;;;;;;;;;4954992;28;20113;-84
2023/09/03 13:33:52;;;;;;;0.20;0.10;;;;;;;;;;4950130;28;20765;-85
2023/09/03 13:36:18;;;;;;;0.20;0.10;;;;;;;;;;4961236;28;20038;-85
2023/09/03 13:38:45;;;;;;;0.20;0.10;;;;;;;;;;4957606;28;20096;-84
2023/09/03 13:41:11;;;;;;;0.20;0.10;;;;;;;;;;4949356;28;20042;-84
2023/09/03 13:43:40;;;;;;;0.20;0.10;;;;;;;;;;4955165;28;20049;-85
2023/09/03 13:46:06;;;;;;;0.20;0.10;;;;;;;;;;4956536;28;20050;-84
2023/09/03 13:48:32;;;;;;;0.20;0.10;;;;;;;;;;4959741;28;20042;-85
2023/09/03 13:51:08;;;;;;;0.20;0.10;;;;;;;;;;4954440;28;20042;-85
2023/09/03 13:53:38;;;;;;;0.30;0.22;;;;;;;;;;4938842;28;20137;-86
2023/09/03 13:56:10;;;;;;;0.20;0.10;;;;;;;;;;4957138;28;20043;-85
2023/09/03 13:58:36;;;;;;;0.20;0.10;;;;;;;;;;4938681;28;20146;-85
2023/09/03 14:01:08;;;;;;;0.20;0.20;;;;;;;;;;4954585;28;20492;-85
2023/09/03 14:03:35;;;;;;;0.20;0.10;;;;;;;;;;4946115;28;20042;-84
2023/09/03 14:06:07;;;;;;;0.20;0.00;;;;;;;;;;4942749;28;20077;-86
2023/09/03 14:08:33;;;;;;;0.60;0.17;;;;;;;;;;4956543;28;20035;-85
2023/09/03 14:10:59;;;;;;;0.20;0.00;;;;;;;;;;4960001;28;20078;-84
2023/09/03 14:13:27;;;;;;;0.20;0.00;;;;;;;;;;4955003;28;20042;-84
2023/09/03 14:15:53;;;;;;;0.20;0.10;;;;;;;;;;4955223;28;20051;-83
2023/09/03 14:18:19;;;;;;;0.20;0.10;;;;;;;;;;4947641;28;20046;-84
2023/09/03 14:20:47;;;;;;;0.20;0.10;;;;;;;;;;4950795;28;20042;-85
2023/09/03 14:23:13;;;;;;;0.20;0.10;;;;;;;;;;4966840;28;20046;-85
2023/09/03 14:25:39;;;;;;;0.30;0.20;;;;;;;;;;4968063;28;20042;-84
2023/09/03 14:28:05;;;;;;;0.20;0.10;;;;;;;;;;4966099;28;20038;-83
2023/09/03 14:30:32;;;;;;;0.20;0.20;;;;;;;;;;4967115;23;20114;-80
2023/09/03 14:32:58;;;;;;;0.20;0.10;;;;;;;;;;4948260;28;20105;-79
2023/09/03 14:35:24;;;;;;;0.22;0.20;;;;;;;;;;4946093;28;20043;-81
2023/09/03 14:37:50;;;;;;;0.20;0.10;;;;;;;;;;4961264;28;20050;-82
2023/09/03 14:40:16;;;;;;;0.20;0.00;;;;;;;;;;4958223;28;20049;-81
2023/09/03 14:42:42;;;;;;;0.20;0.10;;;;;;;;;;4955451;28;20053;-81
2023/09/03 14:45:09;;;;;;;0.20;0.10;;;;;;;;;;4962966;28;20034;-81
2023/09/03 14:47:35;;;;;;;0.20;0.10;;;;;;;;;;4958646;28;20118;-81
2023/09/03 14:50:01;;;;;;;0.20;0.10;;;;;;;;;;4949896;28;20033;-81